Time;durP1;ratioP1;P1;durP2;ratioP2;P2;SDS_P1;SDS_P2;PMS_P1;PMS_P2;Temp;Humidity;BMP_temperature;BMP_pressure;BME280_temperature;BME280_humidity;BME280_pressure;Samples;Min_cycle;Max_cycle;Signal;HPM_P1;HPM_P2
2022/08/04 00:00:13;;;;;;;2.40;2.20;;;;;;;24.68;92.49;98759.78;5051021;28;20203;-80
2022/08/04 00:02:52;;;;;;;3.53;2.50;;;;;;;24.68;91.90;98757.91;5046333;28;20197;-80
2022/08/04 00:05:30;;;;;;;3.50;2.50;;;;;;;24.73;90.81;98758.16;5052635;28;20209;-79
2022/08/04 00:08:07;;;;;;;4.00;2.45;;;;;;;24.91;90.52;98754.09;5052891;28;20217;-79
2022/08/04 00:10:39;;;;;;;3.03;2.45;;;;;;;25.01;90.31;98758.09;5045157;28;20229;-80
2022/08/04 00:13:09;;;;;;;3.15;2.42;;;;;;;24.80;91.28;98755.47;5052834;28;20232;-80
2022/08/04 00:15:38;;;;;;;2.80;2.30;;;;;;;24.96;90.87;98749.72;5050009;28;20197;-79
2022/08/04 00:18:10;;;;;;;2.80;2.40;;;;;;;24.90;90.76;98746.97;5128212;27;20277;-80
2022/08/04 00:20:41;;;;;;;3.08;2.80;;;;;;;25.03;89.63;98747.09;5135495;27;20193;-80
2022/08/04 00:23:09;;;;;;;4.32;2.42;;;;;;;25.06;89.46;98743.97;5132785;27;20190;-80
2022/08/04 00:25:41;;;;;;;2.95;2.65;;;;;;;25.14;87.98;98743.81;5134510;27;20195;-80
2022/08/04 00:28:09;;;;;;;3.28;2.97;;;;;;;25.10;88.73;98746.09;5131631;27;20190;-80
2022/08/04 00:30:37;;;;;;;2.88;2.58;;;;;;;25.02;90.40;98751.69;5125683;27;20226;-80
2022/08/04 00:33:07;;;;;;;3.60;2.80;;;;;;;25.08;90.38;98756.28;5124596;27;20222;-80
2022/08/04 00:35:36;;;;;;;3.90;2.85;;;;;;;25.14;90.71;98753.81;5128556;27;20194;-80
2022/08/04 00:38:05;;;;;;;3.10;2.70;;;;;;;25.15;89.92;98748.19;5132283;27;20190;-80
2022/08/04 00:40:48;;;;;;;3.28;2.63;;;;;;;25.16;90.11;98762.56;5131007;27;20225;-79
2022/08/04 00:43:23;;;;;;;3.65;2.80;;;;;;;25.03;89.80;98752.50;5129956;27;20245;-80
2022/08/04 00:46:24;;;;;;;2.80;2.60;;;;;;;24.89;90.64;98750.72;5127510;27;20197;-79
2022/08/04 00:49:10;;;;;;;3.80;2.50;;;;;;;24.78;91.27;98752.97;5131620;27;20186;-79
2022/08/04 00:51:49;;;;;;;3.85;2.50;;;;;;;24.91;88.22;98760.34;5131900;27;20246;-79
2022/08/04 00:54:48;;;;;;;3.65;2.67;;;;;;;24.65;88.78;98752.88;5134694;27;20202;-80
2022/08/04 00:57:31;;;;;;;2.72;2.53;;;;;;;24.59;89.96;98755.53;5130689;27;20642;-79
2022/08/04 01:00:08;;;;;;;7.53;2.60;;;;;;;24.58;91.90;98749.28;5132348;27;20273;-80
2022/08/04 01:02:39;;;;;;;2.53;2.25;;;;;;;24.38;93.09;98751.84;5131763;27;20194;-80
2022/08/04 01:05:18;;;;;;;3.75;2.50;;;;;;;24.39;93.60;98749.97;5127751;27;20230;-79
2022/08/04 01:08:01;;;;;;;2.72;2.13;;;;;;;24.50;93.06;98750.28;5132689;27;20193;-80
2022/08/04 01:10:41;;;;;;;3.35;2.70;;;;;;;24.21;94.95;98753.13;5131752;27;20801;-80
2022/08/04 01:13:32;;;;;;;2.95;2.65;;;;;;;24.21;95.57;98753.13;5131545;27;20655;-79
2022/08/04 01:16:04;;;;;;;5.07;2.60;;;;;;;24.16;96.35;98752.91;5127491;27;20624;-79
2022/08/04 01:18:43;;;;;;;5.03;2.38;;;;;;;23.88;98.32;98744.72;5131267;27;20195;-79
2022/08/04 01:21:43;;;;;;;4.13;2.83;;;;;;;23.84;99.16;98746.16;5127623;27;20201;-80
2022/08/04 01:24:41;;;;;;;7.97;3.30;;;;;;;23.54;100.00;98746.19;5124330;27;20198;-79
2022/08/04 01:27:18;;;;;;;4.40;2.78;;;;;;;23.41;100.00;98746.91;5133167;27;20194;-79
2022/08/04 01:29:54;;;;;;;3.17;2.80;;;;;;;23.49;100.00;98748.66;5131591;27;20277;-80
2022/08/04 01:32:28;;;;;;;3.63;2.83;;;;;;;23.55;100.00;98750.63;5120962;27;20222;-80
2022/08/04 01:35:02;;;;;;;5.45;3.00;;;;;;;23.52;100.00;98750.97;5110625;28;20250;-80
2022/08/04 01:37:47;;;;;;;2.85;2.53;;;;;;;23.48;100.00;98751.56;5110780;28;20653;-80
2022/08/04 01:40:16;;;;;;;5.25;2.72;;;;;;;23.36;100.00;98752.06;5112335;28;20198;-80
2022/08/04 01:42:49;;;;;;;3.08;2.78;;;;;;;23.42;100.00;98747.75;5113724;28;20254;-80
2022/08/04 01:45:19;;;;;;;3.65;2.95;;;;;;;23.45;100.00;98749.22;5105522;28;20199;-80
2022/08/04 01:47:50;;;;;;;3.85;3.10;;;;;;;23.31;100.00;98742.84;5108869;28;20199;-80
2022/08/04 01:50:19;;;;;;;4.00;2.88;;;;;;;23.35;100.00;98744.13;5110523;28;20207;-80
2022/08/04 01:52:48;;;;;;;4.15;2.40;;;;;;;23.39;100.00;98750.84;5109841;28;20187;-80
2022/08/04 01:55:18;;;;;;;3.25;2.95;;;;;;;23.14;100.00;98748.44;5109262;28;20229;-80
2022/08/04 01:57:49;;;;;;;2.85;2.65;;;;;;;23.12;100.00;98749.66;5108466;28;20195;-80
2022/08/04 02:00:21;;;;;;;3.78;2.67;;;;;;;23.14;100.00;98748.44;5109403;28;20278;-80
2022/08/04 02:02:51;;;;;;;3.65;2.60;;;;;;;23.11;100.00;98735.31;5113453;28;20229;-79
2022/08/04 02:05:21;;;;;;;2.85;2.65;;;;;;;23.16;100.00;98748.25;5104369;28;20199;-80
2022/08/04 02:08:10;;;;;;;4.30;3.15;;;;;;;22.95;100.00;98734.69;5105337;28;20201;-80
2022/08/04 02:10:55;;;;;;;4.60;2.83;;;;;;;22.88;100.00;98739.19;5106568;28;20221;-80
2022/08/04 02:13:31;;;;;;;3.95;2.80;;;;;;;22.81;100.00;98736.34;5104301;28;20334;-80
2022/08/04 02:16:05;;;;;;;4.10;2.90;;;;;;;22.75;100.00;98737.06;5110699;28;20194;-79
2022/08/04 02:18:44;;;;;;;5.45;2.78;;;;;;;22.80;100.00;98734.66;5107935;28;20191;-80
2022/08/04 02:21:15;;;;;;;3.75;2.85;;;;;;;22.72;100.00;98734.75;5113655;28;20195;-80
2022/08/04 02:23:50;;;;;;;3.70;3.08;;;;;;;22.66;100.00;98732.78;5117389;28;20716;-79
2022/08/04 02:26:20;;;;;;;5.85;3.15;;;;;;;22.65;100.00;98729.25;5116266;28;20202;-80
2022/08/04 02:29:01;;;;;;;3.80;3.03;;;;;;;22.47;100.00;98728.78;5109534;28;20274;-80
2022/08/04 02:31:34;;;;;;;3.65;3.22;;;;;;;22.26;100.00;98724.09;5116795;27;20222;-80
2022/08/04 02:34:08;;;;;;;3.88;3.47;;;;;;;22.27;100.00;98714.97;5133605;27;20199;-79
2022/08/04 02:36:38;;;;;;;4.43;3.22;;;;;;;22.35;100.00;98719.47;5137685;27;20194;-80
2022/08/04 02:39:09;;;;;;;4.78;3.50;;;;;;;22.20;100.00;98717.59;5131230;27;20206;-79
2022/08/04 02:41:38;;;;;;;6.53;3.53;;;;;;;22.10;100.00;98721.53;5136137;27;20194;-79
2022/08/04 02:44:09;;;;;;;4.55;3.13;;;;;;;22.11;100.00;98715.16;5134888;27;20649;-80
2022/08/04 02:46:41;;;;;;;5.43;3.33;;;;;;;22.21;100.00;98713.88;5132287;27;20672;-79
2022/08/04 02:49:10;;;;;;;3.83;3.30;;;;;;;22.04;100.00;98717.69;5137405;27;20190;-79
2022/08/04 02:51:41;;;;;;;4.57;3.45;;;;;;;22.12;100.00;98703.34;5130193;27;20611;-80
2022/08/04 02:54:17;;;;;;;3.28;2.97;;;;;;;22.10;100.00;98710.75;5134061;27;20284;-80
2022/08/04 02:57:02;;;;;;;5.70;3.30;;;;;;;22.17;100.00;98714.41;5132243;27;20202;-79
2022/08/04 02:59:48;;;;;;;4.93;3.10;;;;;;;22.21;100.00;98702.25;5133160;27;20190;-79
2022/08/04 03:02:28;;;;;;;4.47;3.45;;;;;;;22.27;100.00;98709.59;5133802;27;20210;-79
2022/08/04 03:05:00;;;;;;;5.80;3.40;;;;;;;22.37;100.00;98712.84;5128445;27;20198;-80
2022/08/04 03:07:54;;;;;;;3.47;2.90;;;;;;;22.32;100.00;98704.50;5133142;27;20216;-79
2022/08/04 03:11:00;;;;;;;4.38;3.00;;;;;;;22.28;100.00;98708.56;5135769;27;20182;-79
2022/08/04 03:13:43;;;;;;;4.07;3.53;;;;;;;22.21;100.00;98699.53;5137127;27;20222;-80
2022/08/04 03:16:30;;;;;;;4.85;3.33;;;;;;;22.29;100.00;98704.84;5129769;27;20205;-79
2022/08/04 03:22:42;;;;;;;4.82;3.53;;;;;;;22.25;100.00;98706.25;5067184;28;20580;-80
2022/08/04 03:26:05;;;;;;;4.78;2.90;;;;;;;22.28;100.00;98705.84;5065710;27;20246;-80
2022/08/04 03:29:16;;;;;;;5.63;3.28;;;;;;;22.26;100.00;98706.03;5066775;28;20193;-79
2022/08/04 03:32:49;;;;;;;3.50;3.20;;;;;;;22.21;100.00;98713.03;5098781;28;20228;-80
2022/08/04 03:35:36;;;;;;;5.40;3.13;;;;;;;21.96;100.00;98707.81;5062820;28;20205;-79
2022/08/04 03:38:26;;;;;;;4.07;3.25;;;;;;;21.97;100.00;98714.88;5066566;27;20200;-79
2022/08/04 03:41:18;;;;;;;4.72;3.45;;;;;;;21.88;100.00;98721.38;5078519;27;20216;-79
2022/08/04 03:44:35;;;;;;;4.22;3.30;;;;;;;22.13;100.00;98722.03;5066630;27;20227;-80
2022/08/04 03:47:33;;;;;;;4.93;3.28;;;;;;;22.03;100.00;98718.72;5066446;28;20201;-80
2022/08/04 03:50:28;;;;;;;5.32;3.63;;;;;;;22.06;100.00;98725.59;5064351;28;20203;-79
2022/08/04 03:53:27;;;;;;;4.18;3.40;;;;;;;21.89;100.00;98724.91;5064388;28;20678;-80
2022/08/04 03:56:31;;;;;;;3.88;3.05;;;;;;;22.06;100.00;98722.91;5064844;28;20208;-79
2022/08/04 03:59:33;;;;;;;6.43;3.35;;;;;;;21.95;100.00;98727.72;5069256;27;20185;-79
2022/08/04 04:02:44;;;;;;;3.80;3.28;;;;;;;21.81;100.00;98733.91;5063953;28;20208;-79
2022/08/04 04:05:44;;;;;;;3.55;3.10;;;;;;;21.96;100.00;98720.47;5059305;27;20200;-79
2022/08/04 04:09:03;;;;;;;7.10;3.33;;;;;;;22.00;100.00;98735.25;5067576;28;20196;-79
2022/08/04 04:12:00;;;;;;;3.65;3.13;;;;;;;22.09;100.00;98727.97;5065027;28;20216;-79
2022/08/04 04:15:02;;;;;;;4.63;3.65;;;;;;;22.08;100.00;98721.72;5064305;28;20224;-79
2022/08/04 04:18:03;;;;;;;5.18;3.40;;;;;;;21.99;100.00;98722.78;5066028;28;20197;-79
2022/08/04 04:20:59;;;;;;;5.53;3.22;;;;;;;21.94;100.00;98726.03;5069087;28;20323;-79
2022/08/04 04:24:16;;;;;;;4.22;3.63;;;;;;;22.08;100.00;98727.13;5067033;28;20185;-79
2022/08/04 04:26:56;;;;;;;4.82;3.20;;;;;;;21.94;100.00;98728.75;5055852;28;20193;-80
2022/08/04 04:29:54;;;;;;;3.72;3.42;;;;;;;22.02;100.00;98724.31;5072885;27;20200;-79
2022/08/04 04:32:28;;;;;;;7.00;4.00;;;;;;;22.09;100.00;98733.34;5057694;28;20278;-80
2022/08/04 04:35:15;;;;;;;5.00;3.33;;;;;;;22.00;100.00;98729.84;5052000;28;20228;-79
2022/08/04 04:38:05;;;;;;;3.75;3.45;;;;;;;21.96;100.00;98726.69;5052434;28;20200;-80
2022/08/04 04:40:53;;;;;;;5.03;3.22;;;;;;;22.03;100.00;98731.38;5059194;28;20220;-79
2022/08/04 04:43:48;;;;;;;4.50;3.38;;;;;;;22.03;100.00;98723.28;5050492;28;20204;-80
2022/08/04 04:46:30;;;;;;;6.10;3.80;;;;;;;22.00;100.00;98727.16;5062648;27;20208;-80
2022/08/04 04:49:05;;;;;;;4.13;3.47;;;;;;;22.10;100.00;98727.81;5055674;28;20208;-80
2022/08/04 04:51:42;;;;;;;6.18;3.78;;;;;;;22.17;100.00;98734.13;5052051;28;20199;-80
2022/08/04 04:54:20;;;;;;;5.50;4.00;;;;;;;22.20;100.00;98730.25;5051876;28;20200;-80
2022/08/04 04:57:00;;;;;;;8.10;3.92;;;;;;;22.22;100.00;98739.81;5050808;28;20196;-80
2022/08/04 04:59:33;;;;;;;5.65;3.30;;;;;;;22.28;100.00;98743.63;5052251;28;20316;-79
2022/08/04 05:02:26;;;;;;;5.07;3.58;;;;;;;22.20;100.00;98738.34;5051741;28;20217;-80
2022/08/04 05:05:15;;;;;;;6.10;3.30;;;;;;;22.24;100.00;98734.25;5043589;28;20197;-81
2022/08/04 05:08:02;;;;;;;3.90;3.58;;;;;;;22.04;100.00;98741.97;5094039;28;20209;-81
2022/08/04 05:11:04;;;;;;;5.15;3.75;;;;;;;22.10;100.00;98737.72;5051275;27;20234;-81
2022/08/04 05:13:38;;;;;;;5.60;3.35;;;;;;;22.23;100.00;98740.66;5051936;28;20193;-81
2022/08/04 05:16:33;;;;;;;4.45;3.70;;;;;;;22.41;100.00;98743.03;5052113;28;20246;-80
2022/08/04 05:19:15;;;;;;;3.80;3.50;;;;;;;22.46;100.00;98737.91;5051753;28;20200;-81
2022/08/04 05:21:48;;;;;;;6.45;3.70;;;;;;;22.45;100.00;98737.06;5051060;28;20376;-81
2022/08/04 05:24:20;;;;;;;3.42;3.03;;;;;;;22.57;100.00;98745.53;5051480;28;20217;-81
2022/08/04 05:26:55;;;;;;;4.97;3.92;;;;;;;22.64;100.00;98742.94;5050005;28;20185;-81
2022/08/04 05:29:30;;;;;;;4.85;3.17;;;;;;;22.59;100.00;98743.50;5049038;28;20204;-80
2022/08/04 05:32:02;;;;;;;4.28;3.55;;;;;;;22.71;100.00;98733.94;5051685;28;20283;-81
2022/08/04 05:34:35;;;;;;;5.05;3.50;;;;;;;22.78;100.00;98745.66;5046535;28;20201;-81
2022/08/04 05:37:09;;;;;;;6.40;3.55;;;;;;;22.83;100.00;98740.53;5051186;28;20197;-81
2022/08/04 05:39:44;;;;;;;4.30;3.60;;;;;;;22.90;100.00;98732.56;5049813;28;20260;-81
2022/08/04 05:42:15;;;;;;;3.72;3.20;;;;;;;23.06;100.00;98740.44;5051192;28;20295;-81
2022/08/04 05:44:46;;;;;;;4.25;3.75;;;;;;;23.13;100.00;98732.44;5047648;28;20284;-81
2022/08/04 05:47:20;;;;;;;5.07;4.05;;;;;;;23.20;100.00;98729.81;5051074;28;20238;-80
2022/08/04 05:49:50;;;;;;;4.43;3.60;;;;;;;23.27;100.00;98731.56;5052875;28;20193;-81
2022/08/04 05:52:30;;;;;;;5.40;3.72;;;;;;;23.29;100.00;98734.91;5051559;28;20205;-81
2022/08/04 05:55:00;;;;;;;4.72;3.72;;;;;;;23.39;100.00;98738.16;5049999;28;20217;-81
2022/08/04 05:57:29;;;;;;;6.68;3.60;;;;;;;23.55;100.00;98734.38;5050000;28;20232;-81
2022/08/04 06:00:01;;;;;;;3.88;3.45;;;;;;;23.55;100.00;98741.66;5050897;28;20197;-81
2022/08/04 06:02:51;;;;;;;6.65;3.70;;;;;;;23.67;100.00;98740.16;5051525;27;20225;-81
2022/08/04 06:05:20;;;;;;;5.72;3.55;;;;;;;23.88;100.00;98736.63;5049988;28;20197;-81
2022/08/04 06:07:49;;;;;;;6.15;3.55;;;;;;;24.02;100.00;98734.84;5051726;28;20235;-81
2022/08/04 06:10:40;;;;;;;3.55;2.88;;;;;;;24.11;100.00;98742.63;5050430;28;20197;-80
2022/08/04 06:13:11;;;;;;;5.38;3.15;;;;;;;24.28;100.00;98745.91;5051654;28;20193;-81
2022/08/04 06:16:05;;;;;;;5.82;3.25;;;;;;;24.24;100.00;98736.53;5051072;28;20205;-81
2022/08/04 06:18:35;;;;;;;5.57;3.20;;;;;;;24.30;100.00;98733.00;5047200;28;20199;-80
2022/08/04 06:21:27;;;;;;;4.18;3.47;;;;;;;24.44;100.00;98739.41;5050891;27;20285;-80
2022/08/04 06:23:57;;;;;;;5.57;3.00;;;;;;;24.62;100.00;98737.03;5056932;27;20204;-80
2022/08/04 06:26:34;;;;;;;3.38;3.05;;;;;;;24.71;100.00;98737.72;5047442;28;20275;-80
2022/08/04 06:29:04;;;;;;;6.15;2.75;;;;;;;24.95;100.00;98742.63;5046877;28;20196;-80
2022/08/04 06:31:45;;;;;;;3.08;2.78;;;;;;;25.03;100.00;98747.94;5050471;28;20237;-80
2022/08/04 06:34:35;;;;;;;3.33;2.78;;;;;;;24.94;100.00;98737.44;5050827;27;20252;-80
2022/08/04 06:37:05;;;;;;;3.17;2.70;;;;;;;24.94;100.00;98740.97;5054262;28;20204;-80
2022/08/04 06:39:36;;;;;;;3.58;2.78;;;;;;;25.16;100.00;98741.72;5044104;28;20197;-80
2022/08/04 06:42:05;;;;;;;4.72;2.80;;;;;;;25.25;100.00;98745.94;5050455;27;20304;-80
2022/08/04 06:44:51;;;;;;;3.08;2.70;;;;;;;25.36;100.00;98742.63;5050558;28;20189;-80
2022/08/04 06:47:22;;;;;;;3.88;2.75;;;;;;;25.59;100.00;98742.31;5047616;28;20216;-80
2022/08/04 06:49:53;;;;;;;2.95;2.40;;;;;;;25.76;100.00;98747.38;5050043;28;20291;-80
2022/08/04 06:52:41;;;;;;;4.35;2.63;;;;;;;25.83;100.00;98742.78;5050505;27;20204;-80
2022/08/04 06:55:10;;;;;;;4.32;2.40;;;;;;;25.96;100.00;98745.50;5048371;28;20276;-80
2022/08/04 06:57:41;;;;;;;4.88;2.70;;;;;;;26.10;100.00;98743.66;5050140;28;20325;-80
2022/08/04 07:00:13;;;;;;;3.72;2.60;;;;;;;26.23;100.00;98747.19;5050068;28;20205;-79
2022/08/04 07:02:46;;;;;;;6.22;3.05;;;;;;;26.33;100.00;98748.66;5050045;28;20699;-80
2022/08/04 07:05:15;;;;;;;5.00;2.90;;;;;;;26.38;99.64;98748.91;5056427;27;20197;-80
2022/08/04 07:07:45;;;;;;;4.65;2.65;;;;;;;26.57;98.22;98744.53;5050144;28;20235;-80
2022/08/04 07:10:26;;;;;;;3.08;2.50;;;;;;;26.72;97.10;98753.25;5048831;28;20193;-80
2022/08/04 07:12:56;;;;;;;4.55;2.75;;;;;;;26.91;96.40;98752.38;5052086;28;20205;-80
2022/08/04 07:15:25;;;;;;;4.47;2.75;;;;;;;27.11;94.94;98741.47;5050005;28;20208;-80
2022/08/04 07:17:58;;;;;;;2.47;2.28;;;;;;;27.32;91.54;98741.19;5050021;28;20220;-80
2022/08/04 07:20:28;;;;;;;3.28;2.65;;;;;;;27.21;92.95;98744.56;5049455;28;20308;-80
2022/08/04 07:23:04;;;;;;;6.00;2.78;;;;;;;27.35;90.07;98742.63;5049656;28;20213;-80
2022/08/04 07:25:33;;;;;;;2.78;2.45;;;;;;;27.77;84.27;98734.91;5048256;28;20193;-80
2022/08/04 07:28:23;;;;;;;3.45;2.50;;;;;;;27.86;86.01;98739.84;5049881;28;20196;-80
2022/08/04 07:30:53;;;;;;;4.18;2.60;;;;;;;28.01;81.57;98733.28;5051872;28;20227;-80
2022/08/04 07:33:24;;;;;;;2.60;2.30;;;;;;;28.27;70.46;98738.50;5049930;28;20224;-80
2022/08/04 07:35:55;;;;;;;3.15;2.85;;;;;;;28.32;66.71;98738.72;5049748;28;20206;-80
2022/08/04 07:38:39;;;;;;;2.92;1.98;;;;;;;28.37;65.72;98736.13;5049762;28;20225;-80
2022/08/04 07:41:23;;;;;;;2.75;2.00;;;;;;;28.44;65.56;98739.63;5048575;28;20193;-79
2022/08/04 07:44:08;;;;;;;3.88;2.40;;;;;;;28.40;65.81;98740.31;5049240;28;20217;-80
2022/08/04 07:46:37;;;;;;;3.85;2.25;;;;;;;28.62;64.73;98744.31;5049562;28;20232;-80
2022/08/04 07:49:08;;;;;;;2.45;2.10;;;;;;;28.63;65.30;98740.50;5049697;28;20208;-80
2022/08/04 07:51:37;;;;;;;2.58;2.35;;;;;;;28.68;63.59;98740.69;5049422;28;20209;-80
2022/08/04 07:54:08;;;;;;;2.55;2.30;;;;;;;28.88;63.30;98740.47;5049404;28;20248;-80
2022/08/04 07:56:38;;;;;;;2.85;2.30;;;;;;;28.87;63.49;98744.25;5048402;28;20600;-80
2022/08/04 07:59:09;;;;;;;2.10;1.90;;;;;;;28.97;62.67;98741.88;5049577;28;20193;-80
2022/08/04 08:01:37;;;;;;;3.63;2.10;;;;;;;28.88;63.30;98743.19;5048736;28;20227;-80
2022/08/04 08:04:10;;;;;;;3.20;2.30;;;;;;;28.69;64.11;98747.81;5047536;28;20221;-80
2022/08/04 08:06:39;;;;;;;4.38;2.05;;;;;;;28.76;63.71;98743.13;5049858;28;20198;-80
2022/08/04 08:09:13;;;;;;;2.28;2.08;;;;;;;28.84;63.32;98746.59;5050244;28;20266;-80
2022/08/04 08:11:43;;;;;;;3.80;2.30;;;;;;;28.77;65.18;98743.97;5053038;27;20208;-80
2022/08/04 08:14:33;;;;;;;6.25;2.53;;;;;;;28.98;65.21;98743.53;5052838;27;20193;-80
2022/08/04 08:17:03;;;;;;;3.25;2.30;;;;;;;28.93;65.78;98739.81;5052864;28;20264;-79
2022/08/04 08:19:34;;;;;;;2.72;2.10;;;;;;;29.00;64.43;98746.88;5049344;28;20201;-80
2022/08/04 08:22:03;;;;;;;2.30;2.05;;;;;;;29.14;63.40;98743.97;5052533;28;20204;-80
2022/08/04 08:24:36;;;;;;;3.25;2.03;;;;;;;29.35;62.15;98743.53;5048908;28;20453;-80
2022/08/04 08:27:05;;;;;;;2.53;1.80;;;;;;;29.47;60.18;98741.69;5052562;28;20197;-80
2022/08/04 08:29:35;;;;;;;4.13;2.20;;;;;;;29.64;60.05;98734.56;5052522;28;20241;-80
2022/08/04 08:32:06;;;;;;;2.88;2.33;;;;;;;29.17;62.14;98730.72;5052047;28;20208;-80
2022/08/04 08:34:38;;;;;;;2.78;2.38;;;;;;;29.38;62.48;98742.22;5052153;28;20204;-80
2022/08/04 08:37:15;;;;;;;3.10;1.85;;;;;;;29.37;61.42;98735.94;5045939;28;20220;-80
2022/08/04 08:39:52;;;;;;;4.32;2.40;;;;;;;29.32;61.76;98736.59;5046919;28;20209;-79
2022/08/04 08:43:00;;;;;;;2.42;2.13;;;;;;;29.61;60.13;98735.00;5052136;28;20197;-80
2022/08/04 08:46:26;;;;;;;2.75;2.03;;;;;;;30.24;55.06;98730.94;5052090;28;20201;-80
2022/08/04 08:49:44;;;;;;;3.35;2.00;;;;;;;30.52;53.58;98724.75;5039956;27;20205;-80
2022/08/04 08:52:54;;;;;;;5.00;2.10;;;;;;;30.38;52.46;98731.53;5052083;28;20254;-80
2022/08/04 08:55:42;;;;;;;3.88;1.98;;;;;;;30.52;52.41;98724.75;5050553;28;20201;-80
2022/08/04 08:58:32;;;;;;;2.00;1.80;;;;;;;30.63;52.72;98723.09;5052006;28;20366;-80
2022/08/04 09:01:10;;;;;;;2.67;1.90;;;;;;;30.78;51.83;98723.44;5051675;28;20682;-80
2022/08/04 09:03:54;;;;;;;3.03;1.95;;;;;;;31.13;50.00;98714.38;5060057;27;20217;-80
2022/08/04 09:06:42;;;;;;;2.88;1.85;;;;;;;31.33;49.17;98715.63;5050065;28;20209;-80
2022/08/04 09:09:41;;;;;;;3.22;1.95;;;;;;;31.43;49.49;98720.47;5048513;28;20204;-80
2022/08/04 09:12:25;;;;;;;2.80;1.80;;;;;;;31.62;48.80;98713.72;5050690;28;20349;-80
2022/08/04 09:15:00;;;;;;;3.65;2.08;;;;;;;31.76;47.00;98716.22;5051846;28;20204;-80
2022/08/04 09:17:33;;;;;;;2.78;1.90;;;;;;;32.09;46.58;98720.88;5047571;28;20205;-80
2022/08/04 09:20:06;;;;;;;2.75;1.90;;;;;;;32.27;46.09;98712.44;5057327;27;20229;-80
2022/08/04 09:22:42;;;;;;;2.03;1.80;;;;;;;32.23;46.79;98707.69;5072137;28;20223;-80
2022/08/04 09:25:19;;;;;;;4.75;1.88;;;;;;;31.46;48.10;98714.53;5091626;28;20192;-79
2022/08/04 09:27:53;;;;;;;2.20;1.90;;;;;;;32.01;47.31;98713.06;5090148;28;20241;-80
2022/08/04 09:30:27;;;;;;;2.95;1.95;;;;;;;32.32;46.42;98708.94;5092562;28;20227;-79
2022/08/04 09:33:10;;;;;;;2.08;1.77;;;;;;;32.53;46.15;98715.59;5092651;28;20360;-80
2022/08/04 09:35:54;;;;;;;2.78;2.00;;;;;;;31.95;47.56;98717.66;5090371;28;20196;-80
2022/08/04 09:38:34;;;;;;;2.50;2.00;;;;;;;32.14;47.37;98708.13;5088231;28;20202;-80
2022/08/04 09:41:17;;;;;;;3.60;1.90;;;;;;;31.90;48.11;98706.59;5061787;28;20197;-79
2022/08/04 09:44:17;;;;;;;4.85;1.60;;;;;;;32.40;47.14;98697.56;5051150;27;20217;-79
2022/08/04 09:47:14;;;;;;;5.93;2.10;;;;;;;32.62;46.70;98708.56;5051203;27;20193;-80
2022/08/04 09:49:53;;;;;;;3.60;1.73;;;;;;;32.53;46.32;98704.63;5049069;28;20197;-80
2022/08/04 09:52:32;;;;;;;2.72;1.83;;;;;;;32.65;45.05;98705.34;5054422;27;20201;-79
2022/08/04 09:55:09;;;;;;;3.40;1.75;;;;;;;32.39;45.95;98704.13;5049721;28;20204;-80
2022/08/04 09:57:51;;;;;;;2.22;1.60;;;;;;;32.38;44.18;98706.03;5050944;28;20300;-79
2022/08/04 10:00:20;;;;;;;2.47;1.70;;;;;;;32.56;46.02;98707.69;5047690;28;20197;-80
2022/08/04 10:03:11;;;;;;;5.47;2.08;;;;;;;32.43;45.34;98708.88;5050874;28;20211;-78
2022/08/04 10:05:59;;;;;;;3.55;1.75;;;;;;;32.36;45.33;98702.72;5050862;28;20197;-79
2022/08/04 10:08:50;;;;;;;4.53;1.80;;;;;;;32.54;45.68;98703.56;5049244;28;20288;-79
2022/08/04 10:11:37;;;;;;;2.00;1.80;;;;;;;33.09;44.11;98705.41;5062464;27;20210;-80
2022/08/04 10:14:38;;;;;;;2.95;1.60;;;;;;;33.51;42.01;98705.69;5050561;28;20193;-80
2022/08/04 10:17:26;;;;;;;2.67;1.70;;;;;;;34.03;41.21;98696.84;5047617;28;20212;-80
2022/08/04 10:20:03;;;;;;;5.65;1.90;;;;;;;34.23;40.66;98698.94;5048240;28;20224;-80
2022/08/04 10:22:38;;;;;;;5.82;2.05;;;;;;;34.40;40.50;98692.22;5050215;28;20193;-80
2022/08/04 10:25:39;;;;;;;4.00;1.75;;;;;;;34.31;40.23;98701.22;5049162;28;20213;-80
2022/08/04 10:28:30;;;;;;;1.77;1.65;;;;;;;34.74;38.90;98689.13;5050675;27;20201;-80
2022/08/04 10:31:07;;;;;;;1.88;1.77;;;;;;;34.58;39.40;98688.22;5059917;27;20201;-80
2022/08/04 10:33:45;;;;;;;4.78;1.60;;;;;;;34.89;38.72;98683.75;5050131;28;20196;-80
2022/08/04 10:36:19;;;;;;;2.30;1.73;;;;;;;35.03;38.07;98686.81;5050556;28;20212;-80
2022/08/04 10:38:56;;;;;;;3.45;1.90;;;;;;;35.02;37.68;98676.91;5049090;28;20212;-80
2022/08/04 10:41:31;;;;;;;2.45;1.60;;;;;;;34.87;37.96;98676.81;5048713;28;20196;-80
2022/08/04 10:44:13;;;;;;;2.63;1.80;;;;;;;34.87;38.41;98679.59;5050284;28;20216;-80
2022/08/04 10:46:48;;;;;;;2.83;1.75;;;;;;;34.49;39.68;98675.25;5050363;28;20204;-80
2022/08/04 10:49:23;;;;;;;2.88;1.65;;;;;;;34.85;38.29;98676.28;5043434;28;20216;-80
2022/08/04 10:51:55;;;;;;;5.38;1.50;;;;;;;35.35;37.20;98663.81;5052694;28;20646;-80
2022/08/04 10:54:33;;;;;;;4.35;1.90;;;;;;;35.50;37.37;98669.38;5056723;27;20192;-81
2022/08/04 10:57:07;;;;;;;5.97;1.88;;;;;;;34.15;39.57;98668.09;5049915;28;20201;-80
2022/08/04 10:59:43;;;;;;;3.50;1.73;;;;;;;34.90;38.48;98663.38;5050036;28;20200;-80
2022/08/04 11:02:27;;;;;;;3.28;1.50;;;;;;;35.23;36.90;98653.06;5049738;28;20197;-80
2022/08/04 11:05:06;;;;;;;2.33;1.90;;;;;;;35.69;36.42;98658.66;5049589;28;20225;-80
2022/08/04 11:07:37;;;;;;;2.05;1.52;;;;;;;35.83;36.81;98652.34;5047249;28;20204;-80
2022/08/04 11:10:07;;;;;;;5.43;1.60;;;;;;;35.19;38.67;98662.94;5048767;28;20224;-80
2022/08/04 11:12:39;;;;;;;2.78;1.75;;;;;;;35.55;37.60;98659.19;5049752;28;20281;-80
2022/08/04 11:15:13;;;;;;;3.38;1.88;;;;;;;35.74;36.74;98664.19;5046897;28;20200;-80
2022/08/04 11:17:49;;;;;;;2.58;1.58;;;;;;;35.82;36.27;98660.91;5049942;28;20197;-80
2022/08/04 11:20:27;;;;;;;1.98;1.75;;;;;;;35.95;36.21;98654.84;5045787;28;20229;-80
2022/08/04 11:23:08;;;;;;;2.00;1.90;;;;;;;35.81;36.40;98648.22;5049710;28;20241;-81
2022/08/04 11:25:48;;;;;;;3.13;1.80;;;;;;;36.01;36.01;98647.41;5048171;28;20257;-80
2022/08/04 11:28:25;;;;;;;5.10;2.20;;;;;;;35.72;36.77;98649.84;5045178;28;20303;-80
2022/08/04 11:30:59;;;;;;;6.07;1.80;;;;;;;35.41;37.22;98658.06;5047757;28;20211;-80
2022/08/04 11:33:41;;;;;;;3.40;1.88;;;;;;;35.74;36.63;98653.16;5049008;28;20224;-81
2022/08/04 11:36:20;;;;;;;2.05;1.65;;;;;;;36.49;36.36;98645.19;5047138;28;20256;-81
2022/08/04 11:39:03;;;;;;;3.00;2.10;;;;;;;36.63;35.82;98651.75;5049661;28;20280;-80
2022/08/04 11:41:41;;;;;;;3.90;2.10;;;;;;;36.34;35.82;98646.81;5048311;28;20193;-80
2022/08/04 11:44:17;;;;;;;2.65;1.67;;;;;;;34.99;37.71;98664.50;5052904;28;20232;-80
2022/08/04 11:46:51;;;;;;;1.80;1.70;;;;;;;35.22;37.71;98660.44;5068875;27;20197;-80
2022/08/04 11:49:29;;;;;;;2.05;1.83;;;;;;;35.46;37.04;98658.09;5068003;27;20630;-80
2022/08/04 11:52:02;;;;;;;3.47;1.73;;;;;;;34.81;38.55;98661.38;5053026;28;20189;-80
2022/08/04 11:54:34;;;;;;;4.05;2.00;;;;;;;35.56;37.66;98657.28;5028788;28;20193;-80
2022/08/04 11:57:03;;;;;;;3.83;1.90;;;;;;;35.52;36.94;98673.53;5052926;28;20238;-79
2022/08/04 11:59:35;;;;;;;2.88;1.80;;;;;;;35.83;36.88;98659.78;5054086;28;20192;-80
2022/08/04 12:02:25;;;;;;;2.92;1.90;;;;;;;36.48;35.54;98660.91;5053014;28;20190;-81
2022/08/04 12:04:58;;;;;;;3.95;1.73;;;;;;;36.89;35.08;98656.09;5054532;28;20504;-80
2022/08/04 12:07:41;;;;;;;1.60;1.50;;;;;;;37.27;33.66;98662.00;5052758;28;20205;-81
2022/08/04 12:10:24;;;;;;;2.20;2.00;;;;;;;37.03;34.52;98669.31;5049932;28;20224;-80
2022/08/04 12:13:20;;;;;;;2.30;1.80;;;;;;;36.54;35.24;98657.00;5052806;28;20193;-80
2022/08/04 12:15:58;;;;;;;1.80;1.70;;;;;;;36.04;36.38;98653.19;5048256;28;20193;-80
2022/08/04 12:18:34;;;;;;;2.70;2.17;;;;;;;37.07;34.24;98656.59;5054951;28;20203;-80
2022/08/04 12:21:09;;;;;;;2.85;2.03;;;;;;;37.86;33.17;98641.75;5050040;28;20225;-80
2022/08/04 12:23:42;;;;;;;3.70;2.10;;;;;;;38.28;32.60;98645.84;5052577;28;20283;-80
2022/08/04 12:26:21;;;;;;;2.92;1.92;;;;;;;37.50;33.67;98641.16;5051156;28;20221;-79
2022/08/04 12:28:53;;;;;;;2.15;1.70;;;;;;;38.66;32.50;98631.00;5052689;28;20189;-81
2022/08/04 12:31:45;;;;;;;2.42;1.80;;;;;;;39.16;32.11;98630.72;5054777;28;20205;-79